createdAt,value
2022-12-06T00:01:32.252Z,96474.84
2022-12-06T00:04:02.128Z,96472.13
2022-12-06T00:06:32.304Z,96477.00
2022-12-06T00:09:02.243Z,96474.94
2022-12-06T00:11:32.717Z,96471.78
2022-12-06T00:14:02.619Z,96476.41
2022-12-06T00:16:31.267Z,96473.66
2022-12-06T00:19:00.160Z,96479.84
2022-12-06T00:21:30.674Z,96483.41
2022-12-06T00:24:02.567Z,96477.94
2022-12-06T00:26:31.688Z,96483.66
2022-12-06T00:29:01.438Z,96481.97
2022-12-06T00:31:32.220Z,96474.13
2022-12-06T00:34:00.596Z,96477.34
2022-12-06T00:36:30.954Z,96485.31
2022-12-06T00:39:02.122Z,96483.66
2022-12-06T00:41:30.461Z,96492.44
2022-12-06T00:43:58.785Z,96480.06
2022-12-06T00:46:29.169Z,96490.03
2022-12-06T00:48:59.619Z,96487.56
2022-12-06T00:51:29.617Z,96496.13
2022-12-06T00:53:58.974Z,96496.94
2022-12-06T00:56:28.940Z,96504.41
2022-12-06T00:58:58.035Z,96493.47
2022-12-06T01:01:28.160Z,96489.78
2022-12-06T01:03:58.991Z,96492.13
2022-12-06T01:06:32.275Z,96500.97
2022-12-06T01:09:03.827Z,96493.22
2022-12-06T01:11:33.609Z,96492.50
2022-12-06T01:14:01.984Z,96492.63
2022-12-06T01:16:32.273Z,96490.00
2022-12-06T01:19:03.228Z,96483.97
2022-12-06T01:21:32.159Z,96479.53
2022-12-06T01:24:00.780Z,96490.00
2022-12-06T01:26:35.982Z,96484.78
2022-12-06T01:29:05.528Z,96478.59
2022-12-06T01:31:38.658Z,96476.00
2022-12-06T01:34:15.033Z,96476.00
2022-12-06T01:36:43.734Z,96484.78
2022-12-06T01:39:12.731Z,96472.66
2022-12-06T01:41:42.644Z,96473.59
2022-12-06T01:44:41.055Z,96478.13
2022-12-06T01:47:14.804Z,96458.28
2022-12-06T01:49:45.146Z,96457.81
2022-12-06T01:52:15.239Z,96449.25
2022-12-06T01:54:43.865Z,96444.25
2022-12-06T01:57:16.344Z,96440.22
2022-12-06T01:59:45.296Z,96437.88
2022-12-06T02:02:14.571Z,96440.03
2022-12-06T02:04:44.216Z,96445.50
2022-12-06T02:07:13.608Z,96436.94
2022-12-06T02:09:42.707Z,96435.16
2022-12-06T02:12:15.203Z,96449.91
2022-12-06T02:14:47.797Z,96442.06
2022-12-06T02:17:30.780Z,96440.41
2022-12-06T02:20:09.350Z,96439.44
2022-12-06T02:23:00.170Z,96437.91
2022-12-06T02:25:51.895Z,96434.56
2022-12-06T02:28:56.963Z,96432.06
2022-12-06T02:31:31.765Z,96432.78
2022-12-06T02:34:03.557Z,96431.13
2022-12-06T02:36:39.709Z,96431.97
2022-12-06T02:39:13.842Z,96427.66
2022-12-06T02:41:49.870Z,96422.31
2022-12-06T02:44:25.323Z,96413.78
2022-12-06T02:46:57.708Z,96406.03
2022-12-06T02:49:28.978Z,96400.91
2022-12-06T02:51:58.302Z,96408.78
2022-12-06T02:54:29.000Z,96406.16
2022-12-06T02:56:57.331Z,96401.06
2022-12-06T02:59:25.703Z,96395.69
2022-12-06T03:01:59.328Z,96403.53
2022-12-06T03:04:59.196Z,96398.31
2022-12-06T03:07:39.361Z,96393.94
2022-12-06T03:10:25.385Z,96401.91
2022-12-06T03:13:02.635Z,96399.28
2022-12-06T03:15:46.165Z,96396.66
2022-12-06T03:18:20.572Z,96396.91
2022-12-06T03:20:55.192Z,96393.47
2022-12-06T03:23:27.663Z,96390.03
2022-12-06T03:25:58.825Z,96388.09
2022-12-06T03:28:29.528Z,96391.56
2022-12-06T03:31:02.725Z,96383.69
2022-12-06T03:33:34.633Z,96383.59
2022-12-06T03:36:03.478Z,96388.00
2022-12-06T03:38:36.889Z,96379.28
2022-12-06T03:41:07.836Z,96374.91
2022-12-06T03:43:36.528Z,96370.50
2022-12-06T03:46:10.652Z,96377.38
2022-12-06T03:48:44.687Z,96374.66
2022-12-06T03:51:18.058Z,96378.94
2022-12-06T03:53:49.259Z,96370.28
2022-12-06T03:56:17.816Z,96370.97
2022-12-06T03:58:46.625Z,96370.00
2022-12-06T04:01:15.304Z,96377.72
2022-12-06T04:03:45.489Z,96370.72
2022-12-06T04:06:13.970Z,96374.16
2022-12-06T04:08:42.333Z,96368.91
2022-12-06T04:11:10.699Z,96370.81
2022-12-06T04:13:39.064Z,96364.88
2022-12-06T04:16:28.211Z,96371.78
2022-12-06T04:18:57.160Z,96358.59
2022-12-06T04:21:43.126Z,96362.03
2022-12-06T04:24:11.408Z,96362.03
2022-12-06T04:26:39.736Z,96358.59
2022-12-06T04:29:25.712Z,96360.38
2022-12-06T04:32:11.823Z,96369.19
2022-12-06T04:34:59.111Z,96362.28
2022-12-06T04:37:44.900Z,96363.38
2022-12-06T04:40:13.307Z,96359.22
2022-12-06T04:42:59.215Z,96361.84
2022-12-06T04:45:27.615Z,96360.03
2022-12-06T04:47:56.112Z,96353.13
2022-12-06T04:50:25.879Z,96355.03
2022-12-06T04:52:54.129Z,96353.41
2022-12-06T04:55:22.419Z,96353.63
2022-12-06T04:57:50.768Z,96359.97
2022-12-06T05:00:19.687Z,96360.91
2022-12-06T05:02:48.066Z,96357.72
2022-12-06T05:05:16.444Z,96351.06
2022-12-06T05:08:20.608Z,96348.59
2022-12-06T05:10:51.847Z,96344.41
2022-12-06T05:13:20.984Z,96354.88
2022-12-06T05:15:53.062Z,96358.44
2022-12-06T05:18:22.244Z,96362.00
2022-12-06T05:20:51.352Z,96362.00
2022-12-06T05:23:19.723Z,96353.47
2022-12-06T05:25:48.083Z,96351.81
2022-12-06T05:28:17.732Z,96360.38
2022-12-06T05:30:46.071Z,96353.34
2022-12-06T05:33:16.223Z,96363.69
2022-12-06T05:35:44.524Z,96357.59
2022-12-06T05:38:12.856Z,96357.59
2022-12-06T05:40:41.601Z,96363.81
2022-12-06T05:43:10.431Z,96372.59
2022-12-06T05:45:40.565Z,96362.97
2022-12-06T05:48:09.517Z,96370.13
2022-12-06T05:50:38.067Z,96367.63
2022-12-06T05:53:06.383Z,96364.19
2022-12-06T05:55:34.733Z,96354.66
2022-12-06T05:58:03.059Z,96367.03
2022-12-06T06:00:31.428Z,96363.69
2022-12-06T06:03:01.396Z,96365.50
2022-12-06T06:05:30.286Z,96360.50
2022-12-06T06:07:58.721Z,96360.50
2022-12-06T06:10:27.115Z,96359.69
2022-12-06T06:12:55.563Z,96360.50
2022-12-06T06:15:24.267Z,96358.84
2022-12-06T06:17:52.572Z,96362.41
2022-12-06T06:20:22.316Z,96360.03
2022-12-06T06:22:50.764Z,96365.25
2022-12-06T06:25:19.337Z,96367.75
2022-12-06T06:27:47.816Z,96365.41
2022-12-06T06:30:16.763Z,96362.19
2022-12-06T06:32:45.259Z,96363.50
2022-12-06T06:35:27.576Z,96369.06
2022-12-06T06:37:55.912Z,96362.31
2022-12-06T06:40:24.435Z,96372.88
2022-12-06T06:42:52.771Z,96372.16
2022-12-06T06:45:28.160Z,96371.47
2022-12-06T06:47:58.447Z,96373.63
2022-12-06T06:50:28.480Z,96378.13
2022-12-06T06:52:56.845Z,96379.19
2022-12-06T06:55:25.316Z,96380.16
2022-12-06T06:57:53.675Z,96384.53
2022-12-06T07:00:22.381Z,96372.31
2022-12-06T07:02:51.125Z,96377.53
2022-12-06T07:05:19.589Z,96374.66
2022-12-06T07:07:49.375Z,96373.03
2022-12-06T07:10:17.845Z,96377.53
2022-12-06T07:12:46.195Z,96380.38
2022-12-06T07:15:14.572Z,96377.88
2022-12-06T07:17:43.131Z,96369.34
2022-12-06T07:20:12.011Z,96385.84
2022-12-06T07:22:40.560Z,96385.97
2022-12-06T07:25:10.874Z,96387.97
2022-12-06T07:27:39.215Z,96390.59
2022-12-06T07:30:09.017Z,96391.19
2022-12-06T07:32:38.232Z,96379.78
2022-12-06T07:35:07.549Z,96380.38
2022-12-06T07:37:36.808Z,96383.47
2022-12-06T07:40:05.950Z,96376.34
2022-12-06T07:42:53.133Z,96383.81
2022-12-06T07:45:21.547Z,96387.72
2022-12-06T07:47:50.149Z,96378.69
2022-12-06T07:50:21.101Z,96399.25
2022-12-06T07:52:51.363Z,96388.44
2022-12-06T07:55:20.354Z,96394.25
2022-12-06T07:57:50.133Z,96384.13
2022-12-06T08:00:19.311Z,96385.44
2022-12-06T08:02:47.923Z,96393.06
2022-12-06T08:05:16.378Z,96396.00
2022-12-06T08:07:44.856Z,96378.16
2022-12-06T08:10:13.513Z,96384.69
2022-12-06T08:12:41.930Z,96388.72
2022-12-06T08:15:13.550Z,96386.44
2022-12-06T08:17:46.454Z,96385.13
2022-12-06T08:20:14.956Z,96391.53
2022-12-06T08:22:43.475Z,96387.47
2022-12-06T08:25:11.878Z,96387.91
2022-12-06T08:27:40.231Z,96380.75
2022-12-06T08:30:09.591Z,96386.31
2022-12-06T08:32:39.440Z,96378.09
2022-12-06T08:35:08.253Z,96385.31
2022-12-06T08:37:36.556Z,96381.38
2022-12-06T08:40:05.481Z,96388.59
2022-12-06T08:42:33.796Z,96389.03
2022-12-06T08:45:02.143Z,96382.81
2022-12-06T08:47:30.556Z,96387.94
2022-12-06T08:50:00.496Z,96386.16
2022-12-06T08:52:29.140Z,96387.69
2022-12-06T08:54:57.508Z,96384.94
2022-12-06T08:57:26.107Z,96386.59
2022-12-06T08:59:55.584Z,96391.72
2022-12-06T09:02:23.928Z,96391.44
2022-12-06T09:04:52.802Z,96390.09
2022-12-06T09:07:23.079Z,96393.19
2022-12-06T09:09:51.383Z,96401.75
2022-12-06T09:12:19.756Z,96398.88
2022-12-06T09:14:48.084Z,96399.56
2022-12-06T09:17:16.388Z,96405.25
2022-12-06T09:19:44.937Z,96402.38
2022-12-06T09:22:13.289Z,96405.56
2022-12-06T09:24:42.955Z,96405.41
2022-12-06T09:27:11.247Z,96403.94
2022-12-06T09:29:40.919Z,96407.03
2022-12-06T09:32:09.492Z,96402.06
2022-12-06T09:34:37.861Z,96401.41
2022-12-06T09:37:11.779Z,96396.50
2022-12-06T09:39:46.680Z,96396.91
2022-12-06T09:42:51.922Z,96393.06
2022-12-06T09:45:45.371Z,96388.50
2022-12-06T09:48:33.485Z,96384.69
2022-12-06T09:51:10.565Z,96379.97
2022-12-06T09:53:54.025Z,96381.41
2022-12-06T09:56:28.572Z,96373.25
2022-12-06T09:59:08.677Z,96374.75
2022-12-06T10:01:52.035Z,96358.75
2022-12-06T10:04:46.983Z,96360.16
2022-12-06T10:07:23.551Z,96349.97
2022-12-06T10:10:04.608Z,96343.34
2022-12-06T10:12:53.623Z,96336.44
2022-12-06T10:15:32.331Z,96330.38
2022-12-06T10:18:15.532Z,96325.94
2022-12-06T10:20:51.456Z,96324.13
2022-12-06T10:23:33.801Z,96323.31
2022-12-06T10:26:13.442Z,96322.91
2022-12-06T10:28:48.328Z,96321.09
2022-12-06T10:31:24.049Z,96310.69
2022-12-06T10:33:58.196Z,96309.31
2022-12-06T10:36:39.913Z,96307.09
2022-12-06T10:39:16.535Z,96312.03
2022-12-06T10:41:51.712Z,96289.22
2022-12-06T10:44:29.900Z,96300.03
2022-12-06T10:47:05.157Z,96303.78
2022-12-06T10:49:42.792Z,96301.97
2022-12-06T10:52:23.966Z,96294.09
2022-12-06T10:54:59.832Z,96296.41
2022-12-06T10:57:35.278Z,96286.19
2022-12-06T11:00:13.310Z,96297.91
2022-12-06T11:02:50.563Z,96286.16
2022-12-06T11:05:24.252Z,96286.00
2022-12-06T11:08:00.275Z,96276.03
2022-12-06T11:10:31.911Z,96281.66
2022-12-06T11:13:10.765Z,96281.09
2022-12-06T11:15:48.119Z,96282.44
2022-12-06T11:18:18.303Z,96276.03
2022-12-06T11:20:51.960Z,96267.78
2022-12-06T11:23:26.972Z,96269.59
2022-12-06T11:26:15.187Z,96266.09
2022-12-06T11:28:49.431Z,96276.53
2022-12-06T11:31:26.507Z,96261.44
2022-12-06T11:33:55.484Z,96264.97
2022-12-06T11:36:25.505Z,96257.91
2022-12-06T11:38:54.296Z,96253.72
2022-12-06T11:41:26.359Z,96259.78
2022-12-06T11:43:56.188Z,96264.66
2022-12-06T11:46:26.831Z,96257.13
2022-12-06T11:48:58.105Z,96257.00
2022-12-06T11:51:26.959Z,96257.91
2022-12-06T11:54:01.759Z,96263.19
2022-12-06T11:56:32.690Z,96250.75
2022-12-06T11:59:20.540Z,96251.31
2022-12-06T12:01:52.657Z,96244.94
2022-12-06T12:04:27.261Z,96241.78
2022-12-06T12:06:59.808Z,96248.16
2022-12-06T12:09:32.478Z,96241.34
2022-12-06T12:12:05.111Z,96236.41
2022-12-06T12:14:39.694Z,96235.19
2022-12-06T12:17:20.460Z,96231.31
2022-12-06T12:19:53.391Z,96234.34
2022-12-06T12:22:26.350Z,96222.47
2022-12-06T12:27:49.552Z,96219.84
2022-12-06T12:30:27.550Z,96213.38
2022-12-06T12:33:22.938Z,96220.72
2022-12-06T12:35:54.684Z,96214.91
2022-12-06T12:38:38.259Z,96222.91
2022-12-06T12:41:25.185Z,96225.81
2022-12-06T12:44:36.063Z,96216.56
2022-12-06T12:46:53.794Z,96215.88
2022-12-06T12:49:27.941Z,96204.69
2022-12-06T12:51:57.297Z,96202.63
2022-12-06T12:54:29.356Z,96202.75
2022-12-06T12:56:58.789Z,96199.47
2022-12-06T12:59:28.960Z,96197.81
2022-12-06T13:02:03.136Z,96189.25
2022-12-06T13:04:42.425Z,96192.03
2022-12-06T13:07:20.980Z,96180.84
2022-12-06T13:10:00.089Z,96186.22
2022-12-06T13:12:34.301Z,96189.78
2022-12-06T13:15:07.784Z,96181.22
2022-12-06T13:17:38.892Z,96173.38
2022-12-06T13:20:22.988Z,96171.59
2022-12-06T13:22:54.903Z,96174.22
2022-12-06T13:25:23.460Z,96164.69
2022-12-06T13:27:54.857Z,96174.22
2022-12-06T13:30:25.818Z,96176.84
2022-12-06T13:32:58.522Z,96174.22
2022-12-06T13:35:30.983Z,96171.59
2022-12-06T13:38:01.608Z,96163.72
2022-12-06T13:40:41.164Z,96162.75
2022-12-06T13:43:54.360Z,96163.56
2022-12-06T13:46:33.725Z,96153.25
2022-12-06T13:49:05.106Z,96150.75
2022-12-06T13:51:45.922Z,96150.06
2022-12-06T13:54:41.159Z,96156.38
2022-12-06T13:57:31.217Z,96161.81
2022-12-06T13:59:59.911Z,96154.88
2022-12-06T14:02:52.475Z,96152.25
2022-12-06T14:08:35.028Z,96153.25
2022-12-06T14:11:19.551Z,96161.94
2022-12-06T14:13:49.892Z,96152.41
2022-12-06T14:16:26.822Z,96156.94
2022-12-06T14:18:55.291Z,96154.34
2022-12-06T14:21:27.633Z,96155.31
2022-12-06T14:23:57.999Z,96158.88
2022-12-06T14:26:28.016Z,96172.81
2022-12-06T14:28:59.003Z,96162.31
2022-12-06T14:31:30.456Z,96160.56
2022-12-06T14:33:59.160Z,96166.75
2022-12-06T14:36:30.337Z,96171.19
2022-12-06T14:39:03.097Z,96185.25
2022-12-06T14:41:52.041Z,96188.72
2022-12-06T14:44:21.527Z,96180.00
2022-12-06T14:46:50.812Z,96185.41
2022-12-06T14:49:39.714Z,96182.63
2022-12-06T14:52:23.022Z,96181.78
2022-12-06T14:54:53.761Z,96179.16
2022-12-06T14:57:27.470Z,96181.78
2022-12-06T15:00:18.471Z,96176.69
2022-12-06T15:03:03.650Z,96184.72
2022-12-06T15:05:38.111Z,96182.22
2022-12-06T15:08:33.558Z,96176.41
2022-12-06T15:11:06.616Z,96178.22
2022-12-06T15:13:34.060Z,96181.91
2022-12-06T15:16:17.415Z,96179.59
2022-12-06T15:18:56.852Z,96189.53
2022-12-06T15:21:25.312Z,96184.41
2022-12-06T15:23:54.595Z,96172.97
2022-12-06T15:26:25.752Z,96180.53
2022-12-06T15:28:54.031Z,96182.06
2022-12-06T15:31:26.934Z,96170.47
2022-12-06T15:33:56.282Z,96177.09
2022-12-06T15:36:26.751Z,96164.69
2022-12-06T15:38:55.313Z,96163.88
2022-12-06T15:41:27.543Z,96161.38
2022-12-06T15:43:57.565Z,96158.06
2022-12-06T15:46:27.987Z,96165.25
2022-12-06T15:48:57.129Z,96156.69
2022-12-06T15:51:28.076Z,96153.22
2022-12-06T15:53:57.951Z,96162.06
2022-12-06T15:56:31.011Z,96160.25
2022-12-06T15:58:59.375Z,96164.56
2022-12-06T16:01:29.885Z,96157.63
2022-12-06T16:03:59.041Z,96168.00
2022-12-06T16:06:29.315Z,96165.50
2022-12-06T16:08:57.891Z,96170.75
2022-12-06T16:11:28.079Z,96163.00
2022-12-06T16:13:56.543Z,96159.72
2022-12-06T16:16:24.985Z,96163.19
2022-12-06T16:18:53.939Z,96156.00
2022-12-06T16:21:24.470Z,96158.47
2022-12-06T16:24:13.875Z,96159.31
2022-12-06T16:26:45.244Z,96147.84
2022-12-06T16:29:16.022Z,96148.69
2022-12-06T16:31:45.240Z,96148.69
2022-12-06T16:34:13.872Z,96147.84
2022-12-06T16:36:57.063Z,96157.38
2022-12-06T16:39:25.620Z,96152.97
2022-12-06T16:41:55.324Z,96152.00
2022-12-06T16:44:23.679Z,96156.41
2022-12-06T16:46:52.727Z,96160.69
2022-12-06T16:52:11.711Z,96161.63
2022-12-06T16:54:41.618Z,96165.13
2022-12-06T16:57:12.343Z,96169.25
2022-12-06T16:59:42.506Z,96167.56
2022-12-06T17:02:26.393Z,96169.38
2022-12-06T17:04:55.600Z,96173.78
2022-12-06T17:07:24.625Z,96172.41
2022-12-06T17:09:53.104Z,96176.97
2022-12-06T17:12:22.865Z,96163.88
2022-12-06T17:14:51.855Z,96175.84
2022-12-06T17:17:22.722Z,96176.69
2022-12-06T17:19:51.508Z,96175.84
2022-12-06T17:22:20.240Z,96174.47
2022-12-06T17:24:48.651Z,96184.84
2022-12-06T17:27:17.711Z,96179.72
2022-12-06T17:29:47.400Z,96176.41
2022-12-06T17:32:15.722Z,96180.00
2022-12-06T17:34:44.057Z,96180.97
2022-12-06T17:37:12.627Z,96180.97
2022-12-06T17:39:40.996Z,96185.66
2022-12-06T17:42:28.541Z,96181.66
2022-12-06T17:44:58.878Z,96183.72
2022-12-06T17:47:27.402Z,96183.28
2022-12-06T17:49:56.482Z,96178.34
2022-12-06T17:52:24.871Z,96186.44
2022-12-06T17:54:53.195Z,96189.50
2022-12-06T17:57:21.563Z,96187.25
2022-12-06T17:59:50.198Z,96188.38
2022-12-06T18:02:25.747Z,96186.97
2022-12-06T18:04:56.029Z,96186.97
2022-12-06T18:07:24.804Z,96188.50
2022-12-06T18:09:54.038Z,96185.63
2022-12-06T18:12:22.379Z,96199.28
2022-12-06T18:14:50.730Z,96197.75
2022-12-06T18:17:20.479Z,96202.03
2022-12-06T18:19:48.847Z,96199.69
2022-12-06T18:22:17.352Z,96199.00
2022-12-06T18:24:45.729Z,96202.47
2022-12-06T18:27:14.150Z,96197.22
2022-12-06T18:29:42.595Z,96205.09
2022-12-06T18:32:11.001Z,96200.09
2022-12-06T18:34:41.486Z,96205.59
2022-12-06T18:37:10.088Z,96204.91
2022-12-06T18:39:38.520Z,96201.72
2022-12-06T18:42:07.625Z,96213.75
2022-12-06T18:44:35.940Z,96205.75
2022-12-06T18:47:04.439Z,96212.75
2022-12-06T18:49:32.759Z,96206.00
2022-12-06T18:52:03.067Z,96214.28
2022-12-06T18:54:31.705Z,96211.66
2022-12-06T18:57:00.223Z,96214.28
2022-12-06T18:59:29.423Z,96216.91
2022-12-06T19:01:57.912Z,96215.22
2022-12-06T19:04:26.373Z,96212.03
2022-12-06T19:06:55.476Z,96213.03
2022-12-06T19:09:29.224Z,96219.09
2022-12-06T19:11:59.240Z,96214.94
2022-12-06T19:14:29.595Z,96216.03
2022-12-06T19:17:02.494Z,96210.09
2022-12-06T19:19:33.189Z,96212.59
2022-12-06T19:22:05.145Z,96214.09
2022-12-06T19:24:37.106Z,96217.16
2022-12-06T19:27:06.896Z,96215.38
2022-12-06T19:29:36.910Z,96206.69
2022-12-06T19:32:08.699Z,96204.91
2022-12-06T19:34:37.535Z,96210.84
2022-12-06T19:37:05.963Z,96201.34
2022-12-06T19:39:35.707Z,96208.22
2022-12-06T19:42:21.721Z,96199.53
2022-12-06T19:44:50.177Z,96201.34
2022-12-06T19:47:18.471Z,96211.81
2022-12-06T19:49:46.902Z,96216.78
2022-12-06T19:52:15.473Z,96211.53
2022-12-06T19:54:45.197Z,96216.78
2022-12-06T19:57:13.540Z,96209.06
2022-12-06T19:59:41.938Z,96203.66
2022-12-06T20:02:13.503Z,96207.84
2022-12-06T20:04:43.959Z,96215.56
2022-12-06T20:07:12.323Z,96207.69
2022-12-06T20:09:40.786Z,96211.00
2022-12-06T20:12:13.201Z,96206.59
2022-12-06T20:14:44.073Z,96207.41
2022-12-06T20:17:15.053Z,96211.16
2022-12-06T20:19:46.209Z,96206.03
2022-12-06T20:22:15.971Z,96207.97
2022-12-06T20:24:44.849Z,96205.34
2022-12-06T20:27:14.770Z,96213.19
2022-12-06T20:29:43.385Z,96200.09
2022-12-06T20:32:11.866Z,96207.97
2022-12-06T20:34:40.255Z,96212.25
2022-12-06T20:37:08.894Z,96203.41
2022-12-06T20:39:37.198Z,96204.22
2022-12-06T20:42:06.957Z,96201.78
2022-12-06T20:44:37.069Z,96214.16
2022-12-06T20:47:11.649Z,96206.56
2022-12-06T20:49:40.096Z,96210.16
2022-12-06T20:52:08.409Z,96205.75
2022-12-06T20:54:36.875Z,96199.66
2022-12-06T20:57:08.364Z,96206.56
2022-12-06T20:59:39.429Z,96212.63
2022-12-06T21:02:08.407Z,96200.34
2022-12-06T21:04:36.760Z,96207.41
2022-12-06T21:07:05.189Z,96207.41
2022-12-06T21:09:33.544Z,96211.00
2022-12-06T21:12:01.880Z,96207.69
2022-12-06T21:14:30.378Z,96206.84
2022-12-06T21:17:00.095Z,96205.75
2022-12-06T21:19:28.419Z,96207.25
2022-12-06T21:21:59.473Z,96214.44
2022-12-06T21:24:27.939Z,96209.31
2022-12-06T21:26:56.235Z,96209.88
2022-12-06T21:29:30.780Z,96211.66
2022-12-06T21:32:02.418Z,96211.78
2022-12-06T21:34:30.771Z,96217.72
2022-12-06T21:36:59.475Z,96215.09
2022-12-06T21:39:27.833Z,96220.22
2022-12-06T21:41:56.166Z,96221.16
2022-12-06T21:44:25.156Z,96225.59
2022-12-06T21:46:54.453Z,96221.97
2022-12-06T21:49:24.413Z,96227.09
2022-12-06T21:52:01.033Z,96227.22
2022-12-06T21:54:31.714Z,96229.03
2022-12-06T21:57:00.001Z,96223.91
2022-12-06T21:59:28.695Z,96231.94
2022-12-06T22:01:57.161Z,96229.44
2022-12-06T22:04:26.976Z,96227.88
2022-12-06T22:06:55.321Z,96221.13
2022-12-06T22:09:23.729Z,96224.31
2022-12-06T22:11:52.151Z,96225.25
2022-12-06T22:14:20.711Z,96228.75
2022-12-06T22:16:50.088Z,96224.31
2022-12-06T22:19:18.475Z,96225.00
2022-12-06T22:21:48.781Z,96222.25
2022-12-06T22:24:17.385Z,96224.59
2022-12-06T22:26:45.661Z,96212.19
2022-12-06T22:29:14.358Z,96209.31
2022-12-06T22:31:43.060Z,96219.53
2022-12-06T22:34:11.516Z,96212.63
2022-12-06T22:36:39.954Z,96214.69
2022-12-06T22:39:09.641Z,96211.25
2022-12-06T22:41:38.073Z,96214.81
2022-12-06T22:44:08.429Z,96221.16
2022-12-06T22:46:37.647Z,96218.53
2022-12-06T22:49:07.052Z,96216.22
2022-12-06T22:51:37.222Z,96224.06
2022-12-06T22:54:07.878Z,96228.63
2022-12-06T22:56:39.036Z,96226.00
2022-12-06T22:59:08.171Z,96226.81
2022-12-06T23:01:36.896Z,96230.00
2022-12-06T23:04:07.301Z,96222.69
2022-12-06T23:06:36.824Z,96222.41
2022-12-06T23:09:05.651Z,96218.84
2022-12-06T23:11:35.871Z,96221.19
2022-12-06T23:14:07.998Z,96219.38
2022-12-06T23:16:36.647Z,96226.44
2022-12-06T23:19:05.475Z,96224.63
2022-12-06T23:21:35.796Z,96225.59
2022-12-06T23:24:06.965Z,96224.09
2022-12-06T23:26:36.955Z,96223.25
2022-12-06T23:29:07.004Z,96213.31
2022-12-06T23:31:37.043Z,96216.75
2022-12-06T23:34:07.307Z,96213.72
2022-12-06T23:36:36.908Z,96216.72
2022-12-06T23:39:06.860Z,96219.22
2022-12-06T23:41:36.007Z,96215.50
2022-12-06T23:44:06.177Z,96213.03
2022-12-06T23:46:36.265Z,96208.72
2022-12-06T23:49:05.774Z,96214.50
2022-12-06T23:51:35.694Z,96211.06
2022-12-06T23:54:06.736Z,96212.59
2022-12-06T23:56:36.963Z,96214.78
2022-12-06T23:59:09.408Z,96214.78
